sensor_id;sensor_type;location;lat;lon;timestamp;pressure;altitude;pressure_sealevel;temperature;humidity
7264;BME280;3673;52.480;13.348;2023-05-22T00:01:25;101326.31;;;24.96;33.94
7264;BME280;3673;52.480;13.348;2023-05-22T00:03:52;101333.28;;;24.82;33.87
7264;BME280;3673;52.480;13.348;2023-05-22T00:06:19;101321.50;;;24.86;33.85
7264;BME280;3673;52.480;13.348;2023-05-22T00:08:46;101319.56;;;24.71;33.93
7264;BME280;3673;52.480;13.348;2023-05-22T00:11:13;101319.72;;;24.68;34.03
7264;BME280;3673;52.480;13.348;2023-05-22T00:13:40;101323.19;;;24.70;34.08
7264;BME280;3673;52.480;13.348;2023-05-22T00:16:07;101318.91;;;24.66;33.82
7264;BME280;3673;52.480;13.348;2023-05-22T00:18:35;101316.41;;;24.63;33.99
7264;BME280;3673;52.480;13.348;2023-05-22T00:21:02;101315.31;;;24.67;34.00
7264;BME280;3673;52.480;13.348;2023-05-22T00:23:29;101313.13;;;24.75;33.69
7264;BME280;3673;52.480;13.348;2023-05-22T00:25:56;101305.94;;;24.58;33.99
7264;BME280;3673;52.480;13.348;2023-05-22T00:28:23;101304.09;;;24.58;33.91
7264;BME280;3673;52.480;13.348;2023-05-22T00:30:50;101309.63;;;24.55;33.94
7264;BME280;3673;52.480;13.348;2023-05-22T00:33:17;101301.00;;;24.68;33.88
7264;BME280;3673;52.480;13.348;2023-05-22T00:35:46;101299.47;;;24.62;33.92
7264;BME280;3673;52.480;13.348;2023-05-22T00:38:27;101303.28;;;24.58;34.05
7264;BME280;3673;52.480;13.348;2023-05-22T00:40:55;101297.56;;;24.47;34.03
7264;BME280;3673;52.480;13.348;2023-05-22T00:43:22;101297.50;;;24.48;34.14
7264;BME280;3673;52.480;13.348;2023-05-22T00:45:49;101302.78;;;24.50;33.99
7264;BME280;3673;52.480;13.348;2023-05-22T00:48:17;101289.34;;;24.51;33.90
7264;BME280;3673;52.480;13.348;2023-05-22T00:50:44;101291.84;;;24.54;34.00
7264;BME280;3673;52.480;13.348;2023-05-22T00:53:12;101293.31;;;24.43;34.19
7264;BME280;3673;52.480;13.348;2023-05-22T00:55:40;101287.75;;;24.47;33.85
7264;BME280;3673;52.480;13.348;2023-05-22T00:58:10;101289.69;;;24.44;33.67
7264;BME280;3673;52.480;13.348;2023-05-22T01:00:39;101297.00;;;24.40;34.07
7264;BME280;3673;52.480;13.348;2023-05-22T01:03:08;101296.34;;;24.18;34.37
7264;BME280;3673;52.480;13.348;2023-05-22T01:05:36;101291.97;;;24.16;34.40
7264;BME280;3673;52.480;13.348;2023-05-22T01:08:05;101287.03;;;24.25;34.15
7264;BME280;3673;52.480;13.348;2023-05-22T01:10:37;101296.09;;;24.23;34.16
7264;BME280;3673;52.480;13.348;2023-05-22T01:13:17;101286.84;;;24.30;33.96
7264;BME280;3673;52.480;13.348;2023-05-22T01:15:54;101289.88;;;24.22;34.15
7264;BME280;3673;52.480;13.348;2023-05-22T01:18:30;101284.09;;;24.31;34.13
7264;BME280;3673;52.480;13.348;2023-05-22T01:21:05;101286.56;;;24.17;34.24
7264;BME280;3673;52.480;13.348;2023-05-22T01:24:30;101284.47;;;24.05;34.17
7264;BME280;3673;52.480;13.348;2023-05-22T01:27:34;101282.38;;;23.93;34.47
7264;BME280;3673;52.480;13.348;2023-05-22T01:30:37;101287.06;;;24.06;34.10
7264;BME280;3673;52.480;13.348;2023-05-22T01:33:07;101279.25;;;24.02;34.04
7264;BME280;3673;52.480;13.348;2023-05-22T01:35:38;101283.59;;;24.04;34.10
7264;BME280;3673;52.480;13.348;2023-05-22T01:38:06;101278.56;;;23.98;34.12
7264;BME280;3673;52.480;13.348;2023-05-22T01:40:35;101280.25;;;23.99;33.94
7264;BME280;3673;52.480;13.348;2023-05-22T01:43:01;101287.72;;;23.93;34.26
7264;BME280;3673;52.480;13.348;2023-05-22T01:45:29;101273.56;;;23.91;34.12
7264;BME280;3673;52.480;13.348;2023-05-22T01:47:57;101273.41;;;23.94;34.33
7264;BME280;3673;52.480;13.348;2023-05-22T01:50:24;101280.19;;;23.82;34.48
7264;BME280;3673;52.480;13.348;2023-05-22T01:52:58;101282.66;;;23.87;34.22
7264;BME280;3673;52.480;13.348;2023-05-22T01:55:35;101281.66;;;23.71;34.45
7264;BME280;3673;52.480;13.348;2023-05-22T01:58:11;101282.13;;;23.79;34.20
7264;BME280;3673;52.480;13.348;2023-05-22T02:00:42;101271.97;;;23.68;34.77
7264;BME280;3673;52.480;13.348;2023-05-22T02:03:18;101284.97;;;23.76;34.14
7264;BME280;3673;52.480;13.348;2023-05-22T02:05:53;101277.44;;;23.65;34.50
7264;BME280;3673;52.480;13.348;2023-05-22T02:08:21;101273.19;;;23.61;34.44
7264;BME280;3673;52.480;13.348;2023-05-22T02:10:50;101268.78;;;23.60;34.33
7264;BME280;3673;52.480;13.348;2023-05-22T02:13:18;101274.84;;;23.64;34.35
7264;BME280;3673;52.480;13.348;2023-05-22T02:15:45;101275.88;;;23.61;34.47
7264;BME280;3673;52.480;13.348;2023-05-22T02:18:14;101279.47;;;23.60;34.35
7264;BME280;3673;52.480;13.348;2023-05-22T02:20:41;101274.41;;;23.54;34.39
7264;BME280;3673;52.480;13.348;2023-05-22T02:23:08;101277.72;;;23.59;34.25
7264;BME280;3673;52.480;13.348;2023-05-22T02:25:35;101277.13;;;23.52;34.45
7264;BME280;3673;52.480;13.348;2023-05-22T02:28:03;101281.22;;;23.61;34.55
7264;BME280;3673;52.480;13.348;2023-05-22T02:30:29;101284.88;;;23.58;34.56
7264;BME280;3673;52.480;13.348;2023-05-22T02:32:57;101275.56;;;23.67;34.20
7264;BME280;3673;52.480;13.348;2023-05-22T02:35:26;101273.59;;;23.52;34.31
7264;BME280;3673;52.480;13.348;2023-05-22T02:37:52;101276.00;;;23.58;34.56
7264;BME280;3673;52.480;13.348;2023-05-22T02:40:20;101272.31;;;23.61;34.27
7264;BME280;3673;52.480;13.348;2023-05-22T02:42:46;101269.94;;;23.54;34.44
7264;BME280;3673;52.480;13.348;2023-05-22T02:45:13;101272.47;;;23.57;34.29
7264;BME280;3673;52.480;13.348;2023-05-22T02:47:40;101272.38;;;23.39;34.92
7264;BME280;3673;52.480;13.348;2023-05-22T02:50:07;101269.41;;;23.46;34.74
7264;BME280;3673;52.480;13.348;2023-05-22T02:52:36;101271.44;;;23.41;34.66
7264;BME280;3673;52.480;13.348;2023-05-22T02:55:04;101266.22;;;23.38;34.68
7264;BME280;3673;52.480;13.348;2023-05-22T02:57:32;101265.97;;;23.44;34.81
7264;BME280;3673;52.480;13.348;2023-05-22T02:59:58;101264.16;;;23.45;34.78
7264;BME280;3673;52.480;13.348;2023-05-22T03:02:26;101260.78;;;23.40;34.87
7264;BME280;3673;52.480;13.348;2023-05-22T03:04:54;101258.19;;;23.38;34.78
7264;BME280;3673;52.480;13.348;2023-05-22T03:07:23;101261.25;;;23.29;34.99
7264;BME280;3673;52.480;13.348;2023-05-22T03:09:52;101256.88;;;23.28;35.23
7264;BME280;3673;52.480;13.348;2023-05-22T03:12:18;101252.53;;;23.26;34.81
7264;BME280;3673;52.480;13.348;2023-05-22T03:14:46;101249.94;;;23.24;35.16
7264;BME280;3673;52.480;13.348;2023-05-22T03:17:12;101246.53;;;23.21;35.21
7264;BME280;3673;52.480;13.348;2023-05-22T03:19:39;101239.44;;;23.20;35.34
7264;BME280;3673;52.480;13.348;2023-05-22T03:22:06;101240.66;;;23.13;35.35
7264;BME280;3673;52.480;13.348;2023-05-22T03:24:33;101235.84;;;23.21;35.35
7264;BME280;3673;52.480;13.348;2023-05-22T03:27:01;101242.41;;;23.14;35.12
7264;BME280;3673;52.480;13.348;2023-05-22T03:29:28;101248.38;;;23.19;35.38
7264;BME280;3673;52.480;13.348;2023-05-22T03:31:55;101231.13;;;23.07;35.34
7264;BME280;3673;52.480;13.348;2023-05-22T03:34:22;101243.69;;;23.05;35.74
7264;BME280;3673;52.480;13.348;2023-05-22T03:36:49;101246.47;;;23.02;35.77
7264;BME280;3673;52.480;13.348;2023-05-22T03:39:16;101240.81;;;23.09;35.73
7264;BME280;3673;52.480;13.348;2023-05-22T03:41:43;101246.88;;;22.93;35.89
7264;BME280;3673;52.480;13.348;2023-05-22T03:44:11;101250.75;;;22.86;35.92
7264;BME280;3673;52.480;13.348;2023-05-22T03:46:37;101254.16;;;22.89;36.01
7264;BME280;3673;52.480;13.348;2023-05-22T03:49:04;101252.81;;;22.99;35.98
7264;BME280;3673;52.480;13.348;2023-05-22T03:51:31;101249.13;;;23.02;35.83
7264;BME280;3673;52.480;13.348;2023-05-22T03:53:58;101246.84;;;22.94;35.99
7264;BME280;3673;52.480;13.348;2023-05-22T03:56:24;101248.34;;;22.80;36.11
7264;BME280;3673;52.480;13.348;2023-05-22T03:58:51;101245.28;;;22.89;36.22
7264;BME280;3673;52.480;13.348;2023-05-22T04:01:19;101242.69;;;22.67;36.57
7264;BME280;3673;52.480;13.348;2023-05-22T04:03:46;101238.00;;;22.72;36.53
7264;BME280;3673;52.480;13.348;2023-05-22T04:06:13;101234.59;;;22.69;36.65
7264;BME280;3673;52.480;13.348;2023-05-22T04:08:40;101240.06;;;22.86;36.33
7264;BME280;3673;52.480;13.348;2023-05-22T04:11:06;101235.88;;;22.80;36.52
7264;BME280;3673;52.480;13.348;2023-05-22T04:13:33;101246.31;;;22.65;37.05
7264;BME280;3673;52.480;13.348;2023-05-22T04:16:00;101241.69;;;22.70;36.75
7264;BME280;3673;52.480;13.348;2023-05-22T04:18:29;101243.47;;;22.69;36.73
7264;BME280;3673;52.480;13.348;2023-05-22T04:20:56;101245.28;;;22.69;36.85
7264;BME280;3673;52.480;13.348;2023-05-22T04:23:22;101241.75;;;22.68;36.76
7264;BME280;3673;52.480;13.348;2023-05-22T04:25:50;101239.16;;;22.67;36.86
7264;BME280;3673;52.480;13.348;2023-05-22T04:28:17;101257.06;;;22.63;37.22
7264;BME280;3673;52.480;13.348;2023-05-22T04:30:46;101249.81;;;22.67;37.07
7264;BME280;3673;52.480;13.348;2023-05-22T04:33:13;101249.81;;;22.87;37.07
7264;BME280;3673;52.480;13.348;2023-05-22T04:35:42;101247.47;;;22.79;37.03
7264;BME280;3673;52.480;13.348;2023-05-22T04:38:09;101247.16;;;22.87;36.99
7264;BME280;3673;52.480;13.348;2023-05-22T04:40:35;101247.03;;;22.90;37.16
7264;BME280;3673;52.480;13.348;2023-05-22T04:43:02;101250.25;;;22.98;36.80
7264;BME280;3673;52.480;13.348;2023-05-22T04:45:29;101247.44;;;22.81;37.00
7264;BME280;3673;52.480;13.348;2023-05-22T04:47:57;101246.59;;;22.99;36.91
7264;BME280;3673;52.480;13.348;2023-05-22T04:50:26;101241.56;;;22.93;37.05
7264;BME280;3673;52.480;13.348;2023-05-22T04:52:56;101245.03;;;22.95;37.16
7264;BME280;3673;52.480;13.348;2023-05-22T04:55:24;101245.41;;;23.06;36.98
7264;BME280;3673;52.480;13.348;2023-05-22T04:57:50;101241.63;;;23.12;37.01
7264;BME280;3673;52.480;13.348;2023-05-22T05:00:18;101243.34;;;23.13;36.87
7264;BME280;3673;52.480;13.348;2023-05-22T05:02:51;101239.06;;;23.08;36.83
7264;BME280;3673;52.480;13.348;2023-05-22T05:05:17;101246.41;;;23.03;37.07
7264;BME280;3673;52.480;13.348;2023-05-22T05:07:47;101236.66;;;23.23;36.82
7264;BME280;3673;52.480;13.348;2023-05-22T05:10:15;101241.25;;;23.19;36.98
7264;BME280;3673;52.480;13.348;2023-05-22T05:12:42;101236.88;;;23.18;37.10
7264;BME280;3673;52.480;13.348;2023-05-22T05:15:09;101243.59;;;23.06;37.13
7264;BME280;3673;52.480;13.348;2023-05-22T05:17:36;101236.34;;;23.10;37.25
7264;BME280;3673;52.480;13.348;2023-05-22T05:20:04;101242.28;;;22.96;37.40
7264;BME280;3673;52.480;13.348;2023-05-22T05:22:31;101234.22;;;22.98;37.40
7264;BME280;3673;52.480;13.348;2023-05-22T05:24:59;101242.59;;;23.09;37.39
7264;BME280;3673;52.480;13.348;2023-05-22T05:27:27;101250.25;;;22.98;37.80
7264;BME280;3673;52.480;13.348;2023-05-22T05:29:54;101244.63;;;23.04;37.49
7264;BME280;3673;52.480;13.348;2023-05-22T05:32:21;101246.97;;;22.91;37.89
7264;BME280;3673;52.480;13.348;2023-05-22T05:34:47;101241.81;;;22.87;38.04
7264;BME280;3673;52.480;13.348;2023-05-22T05:37:14;101247.16;;;22.87;38.18
7264;BME280;3673;52.480;13.348;2023-05-22T05:39:41;101248.09;;;22.86;38.19
7264;BME280;3673;52.480;13.348;2023-05-22T05:42:08;101257.63;;;23.12;37.99
7264;BME280;3673;52.480;13.348;2023-05-22T05:44:36;101259.50;;;22.89;38.23
7264;BME280;3673;52.480;13.348;2023-05-22T05:47:03;101255.03;;;22.90;38.45
7264;BME280;3673;52.480;13.348;2023-05-22T05:49:31;101248.22;;;23.03;38.28
7264;BME280;3673;52.480;13.348;2023-05-22T05:51:58;101250.06;;;23.21;37.98
7264;BME280;3673;52.480;13.348;2023-05-22T05:54:25;101256.75;;;23.31;37.64
7264;BME280;3673;52.480;13.348;2023-05-22T05:56:52;101262.22;;;23.28;37.86
7264;BME280;3673;52.480;13.348;2023-05-22T05:59:19;101257.84;;;23.26;37.69
7264;BME280;3673;52.480;13.348;2023-05-22T06:01:47;101257.22;;;23.59;37.36
7264;BME280;3673;52.480;13.348;2023-05-22T06:04:15;101263.38;;;23.62;37.29
7264;BME280;3673;52.480;13.348;2023-05-22T06:06:42;101260.03;;;23.75;37.08
7264;BME280;3673;52.480;13.348;2023-05-22T06:09:09;101262.94;;;23.71;36.90
7264;BME280;3673;52.480;13.348;2023-05-22T06:11:36;101258.47;;;23.71;37.35
7264;BME280;3673;52.480;13.348;2023-05-22T06:14:04;101261.00;;;23.74;37.31
7264;BME280;3673;52.480;13.348;2023-05-22T06:16:32;101255.06;;;23.86;37.00
7264;BME280;3673;52.480;13.348;2023-05-22T06:19:00;101266.03;;;23.80;37.25
7264;BME280;3673;52.480;13.348;2023-05-22T06:21:26;101256.56;;;23.92;36.97
7264;BME280;3673;52.480;13.348;2023-05-22T06:23:53;101252.84;;;23.77;37.33
7264;BME280;3673;52.480;13.348;2023-05-22T06:26:20;101254.91;;;23.89;37.09
7264;BME280;3673;52.480;13.348;2023-05-22T06:28:48;101253.47;;;24.01;36.99
7264;BME280;3673;52.480;13.348;2023-05-22T06:31:16;101248.97;;;24.20;36.72
7264;BME280;3673;52.480;13.348;2023-05-22T06:33:43;101246.69;;;24.13;36.73
7264;BME280;3673;52.480;13.348;2023-05-22T06:36:11;101251.72;;;24.19;37.11
7264;BME280;3673;52.480;13.348;2023-05-22T06:38:38;101248.69;;;24.43;36.57
7264;BME280;3673;52.480;13.348;2023-05-22T06:41:05;101257.81;;;24.39;36.67
7264;BME280;3673;52.480;13.348;2023-05-22T06:43:32;101243.16;;;24.65;36.25
7264;BME280;3673;52.480;13.348;2023-05-22T06:45:59;101249.34;;;24.66;36.35
7264;BME280;3673;52.480;13.348;2023-05-22T06:48:26;101243.81;;;24.69;36.29
7264;BME280;3673;52.480;13.348;2023-05-22T06:50:53;101250.50;;;24.43;36.99
7264;BME280;3673;52.480;13.348;2023-05-22T06:53:21;101244.09;;;24.64;36.66
7264;BME280;3673;52.480;13.348;2023-05-22T06:55:50;101246.09;;;24.42;36.76
7264;BME280;3673;52.480;13.348;2023-05-22T06:58:16;101237.63;;;24.68;36.60
7264;BME280;3673;52.480;13.348;2023-05-22T07:00:43;101238.72;;;24.64;36.82
7264;BME280;3673;52.480;13.348;2023-05-22T07:03:10;101243.59;;;24.73;36.45
7264;BME280;3673;52.480;13.348;2023-05-22T07:05:37;101237.63;;;24.85;36.48
7264;BME280;3673;52.480;13.348;2023-05-22T07:08:04;101246.69;;;25.00;36.08
7264;BME280;3673;52.480;13.348;2023-05-22T07:10:34;101232.16;;;24.88;36.64
7264;BME280;3673;52.480;13.348;2023-05-22T07:13:01;101235.72;;;24.70;36.67
7264;BME280;3673;52.480;13.348;2023-05-22T07:15:28;101238.81;;;24.97;36.75
7264;BME280;3673;52.480;13.348;2023-05-22T07:17:55;101240.53;;;25.15;36.28
7264;BME280;3673;52.480;13.348;2023-05-22T07:20:22;101233.88;;;25.22;36.43
7264;BME280;3673;52.480;13.348;2023-05-22T07:22:50;101237.34;;;25.24;36.37
7264;BME280;3673;52.480;13.348;2023-05-22T07:25:17;101238.78;;;25.47;35.95
7264;BME280;3673;52.480;13.348;2023-05-22T07:27:45;101235.63;;;25.56;35.92
7264;BME280;3673;52.480;13.348;2023-05-22T07:30:12;101239.34;;;25.69;35.68
7264;BME280;3673;52.480;13.348;2023-05-22T07:32:39;101235.13;;;25.81;35.78
7264;BME280;3673;52.480;13.348;2023-05-22T07:35:07;101233.22;;;25.67;35.43
7264;BME280;3673;52.480;13.348;2023-05-22T07:37:36;101234.44;;;25.77;35.36
7264;BME280;3673;52.480;13.348;2023-05-22T07:40:04;101226.41;;;25.77;35.39
7264;BME280;3673;52.480;13.348;2023-05-22T07:42:32;101225.72;;;26.05;35.11
7264;BME280;3673;52.480;13.348;2023-05-22T07:45:01;101231.47;;;26.13;35.32
7264;BME280;3673;52.480;13.348;2023-05-22T07:47:28;101234.63;;;26.21;34.97
7264;BME280;3673;52.480;13.348;2023-05-22T07:49:54;101236.94;;;26.27;34.99
7264;BME280;3673;52.480;13.348;2023-05-22T07:52:21;101223.47;;;25.97;35.46
7264;BME280;3673;52.480;13.348;2023-05-22T07:54:48;101226.13;;;26.13;35.24
7264;BME280;3673;52.480;13.348;2023-05-22T07:57:15;101228.09;;;26.41;34.95
7264;BME280;3673;52.480;13.348;2023-05-22T07:59:42;101229.28;;;26.51;35.01
7264;BME280;3673;52.480;13.348;2023-05-22T08:02:11;101225.66;;;26.66;34.38
7264;BME280;3673;52.480;13.348;2023-05-22T08:04:38;101214.72;;;26.55;34.78
7264;BME280;3673;52.480;13.348;2023-05-22T08:07:06;101233.22;;;26.59;35.06
7264;BME280;3673;52.480;13.348;2023-05-22T08:09:33;101224.16;;;26.92;34.18
7264;BME280;3673;52.480;13.348;2023-05-22T08:11:59;101225.88;;;27.07;34.27
7264;BME280;3673;52.480;13.348;2023-05-22T08:14:26;101222.78;;;26.99;33.79
7264;BME280;3673;52.480;13.348;2023-05-22T08:16:53;101218.88;;;27.04;33.88
7264;BME280;3673;52.480;13.348;2023-05-22T08:19:22;101221.94;;;27.27;33.82
7264;BME280;3673;52.480;13.348;2023-05-22T08:21:50;101230.41;;;27.63;33.28
7264;BME280;3673;52.480;13.348;2023-05-22T08:24:22;101224.72;;;27.82;32.53
7264;BME280;3673;52.480;13.348;2023-05-22T08:26:52;101223.97;;;27.66;32.64
7264;BME280;3673;52.480;13.348;2023-05-22T08:29:22;101219.44;;;27.66;32.38
7264;BME280;3673;52.480;13.348;2023-05-22T08:31:49;101216.38;;;27.99;31.85
7264;BME280;3673;52.480;13.348;2023-05-22T08:34:16;101214.91;;;28.22;31.86
7264;BME280;3673;52.480;13.348;2023-05-22T08:36:44;101213.91;;;28.10;31.71
7264;BME280;3673;52.480;13.348;2023-05-22T08:39:11;101213.91;;;28.10;31.55
7264;BME280;3673;52.480;13.348;2023-05-22T08:41:39;101213.84;;;28.24;31.82
7264;BME280;3673;52.480;13.348;2023-05-22T08:44:08;101202.16;;;28.38;31.62
7264;BME280;3673;52.480;13.348;2023-05-22T08:46:36;101207.81;;;28.21;31.74
7264;BME280;3673;52.480;13.348;2023-05-22T08:49:08;101201.72;;;28.44;31.20
7264;BME280;3673;52.480;13.348;2023-05-22T08:51:37;101204.88;;;28.11;31.09
7264;BME280;3673;52.480;13.348;2023-05-22T08:54:07;101192.56;;;28.46;30.81
7264;BME280;3673;52.480;13.348;2023-05-22T08:56:35;101190.13;;;28.56;30.25
7264;BME280;3673;52.480;13.348;2023-05-22T08:59:02;101186.53;;;28.95;29.71
7264;BME280;3673;52.480;13.348;2023-05-22T09:01:30;101178.97;;;29.00;29.71
7264;BME280;3673;52.480;13.348;2023-05-22T09:04:00;101176.41;;;29.11;29.24
7264;BME280;3673;52.480;13.348;2023-05-22T09:06:27;101175.84;;;29.06;29.33
7264;BME280;3673;52.480;13.348;2023-05-22T09:08:55;101183.28;;;29.15;29.42
7264;BME280;3673;52.480;13.348;2023-05-22T09:11:23;101174.03;;;28.94;29.60
7264;BME280;3673;52.480;13.348;2023-05-22T09:13:51;101181.03;;;28.96;29.73
7264;BME280;3673;52.480;13.348;2023-05-22T09:16:18;101179.81;;;29.13;29.52
7264;BME280;3673;52.480;13.348;2023-05-22T09:18:45;101179.19;;;29.09;29.52
7264;BME280;3673;52.480;13.348;2023-05-22T09:21:13;101174.91;;;29.32;29.01
7264;BME280;3673;52.480;13.348;2023-05-22T09:23:40;101175.06;;;29.54;28.79
7264;BME280;3673;52.480;13.348;2023-05-22T09:26:07;101172.41;;;29.42;28.74
7264;BME280;3673;52.480;13.348;2023-05-22T09:28:35;101170.75;;;29.39;28.80
7264;BME280;3673;52.480;13.348;2023-05-22T09:31:03;101164.25;;;29.54;28.43
7264;BME280;3673;52.480;13.348;2023-05-22T09:33:31;101165.91;;;29.44;28.65
7264;BME280;3673;52.480;13.348;2023-05-22T09:35:57;101162.97;;;29.47;28.37
7264;BME280;3673;52.480;13.348;2023-05-22T09:38:27;101161.16;;;29.48;28.24
7264;BME280;3673;52.480;13.348;2023-05-22T09:40:55;101163.13;;;29.08;28.74
7264;BME280;3673;52.480;13.348;2023-05-22T09:43:23;101152.09;;;29.49;28.81
7264;BME280;3673;52.480;13.348;2023-05-22T09:45:55;101155.63;;;29.49;28.43
7264;BME280;3673;52.480;13.348;2023-05-22T09:48:22;101161.69;;;29.77;28.15
7264;BME280;3673;52.480;13.348;2023-05-22T09:50:52;101151.19;;;29.97;27.73
7264;BME280;3673;52.480;13.348;2023-05-22T09:53:26;101147.25;;;30.25;27.11
7264;BME280;3673;52.480;13.348;2023-05-22T09:55:55;101159.00;;;30.48;27.00
7264;BME280;3673;52.480;13.348;2023-05-22T09:58:26;101155.19;;;30.96;26.31
7264;BME280;3673;52.480;13.348;2023-05-22T10:00:55;101147.69;;;31.11;26.11
7264;BME280;3673;52.480;13.348;2023-05-22T10:03:24;101147.31;;;31.27;25.82
7264;BME280;3673;52.480;13.348;2023-05-22T10:05:54;101146.22;;;31.18;25.63
7264;BME280;3673;52.480;13.348;2023-05-22T10:08:26;101138.00;;;30.97;25.91
7264;BME280;3673;52.480;13.348;2023-05-22T10:10:54;101140.75;;;30.74;26.34
7264;BME280;3673;52.480;13.348;2023-05-22T10:13:23;101147.66;;;30.89;26.08
7264;BME280;3673;52.480;13.348;2023-05-22T10:15:50;101146.56;;;30.91;25.83
7264;BME280;3673;52.480;13.348;2023-05-22T10:18:19;101147.81;;;31.21;25.75
7264;BME280;3673;52.480;13.348;2023-05-22T10:20:47;101141.78;;;31.06;25.50
7264;BME280;3673;52.480;13.348;2023-05-22T10:23:14;101138.94;;;31.30;25.30
7264;BME280;3673;52.480;13.348;2023-05-22T10:25:43;101137.50;;;31.03;25.72
7264;BME280;3673;52.480;13.348;2023-05-22T10:28:10;101137.63;;;31.24;25.77
7264;BME280;3673;52.480;13.348;2023-05-22T10:30:46;101133.06;;;31.25;25.96
7264;BME280;3673;52.480;13.348;2023-05-22T10:33:20;101133.06;;;31.58;25.42
7264;BME280;3673;52.480;13.348;2023-05-22T10:35:51;101123.53;;;31.75;25.10
7264;BME280;3673;52.480;13.348;2023-05-22T10:38:49;101118.53;;;32.23;24.50
7264;BME280;3673;52.480;13.348;2023-05-22T10:41:19;101123.31;;;31.98;24.37
7264;BME280;3673;52.480;13.348;2023-05-22T10:43:48;101125.84;;;31.79;24.51
7264;BME280;3673;52.480;13.348;2023-05-22T10:46:16;101108.94;;;31.33;24.94
7264;BME280;3673;52.480;13.348;2023-05-22T10:48:46;101119.25;;;31.50;24.58
7264;BME280;3673;52.480;13.348;2023-05-22T10:51:14;101104.97;;;32.02;23.97
7264;BME280;3673;52.480;13.348;2023-05-22T10:53:43;101101.84;;;32.38;23.19
7264;BME280;3673;52.480;13.348;2023-05-22T10:56:13;101099.47;;;32.45;23.05
7264;BME280;3673;52.480;13.348;2023-05-22T10:58:43;101101.91;;;32.27;22.83
7264;BME280;3673;52.480;13.348;2023-05-22T11:01:12;101092.84;;;32.17;23.06
7264;BME280;3673;52.480;13.348;2023-05-22T11:03:57;101090.91;;;32.19;23.01
7264;BME280;3673;52.480;13.348;2023-05-22T11:06:36;101088.31;;;32.18;23.02
7264;BME280;3673;52.480;13.348;2023-05-22T11:09:17;101093.34;;;32.22;23.24
7264;BME280;3673;52.480;13.348;2023-05-22T11:11:50;101088.34;;;32.06;23.36
7264;BME280;3673;52.480;13.348;2023-05-22T11:14:31;101085.94;;;31.92;23.44
7264;BME280;3673;52.480;13.348;2023-05-22T11:16:59;101085.69;;;31.95;22.78
7264;BME280;3673;52.480;13.348;2023-05-22T11:19:28;101089.28;;;31.85;23.29
7264;BME280;3673;52.480;13.348;2023-05-22T11:21:59;101079.25;;;31.76;22.83
7264;BME280;3673;52.480;13.348;2023-05-22T11:24:31;101076.56;;;31.96;22.85
7264;BME280;3673;52.480;13.348;2023-05-22T11:27:01;101076.13;;;31.80;22.47
7264;BME280;3673;52.480;13.348;2023-05-22T11:29:30;101075.94;;;31.93;22.56
7264;BME280;3673;52.480;13.348;2023-05-22T11:31:58;101070.66;;;32.44;22.11
7264;BME280;3673;52.480;13.348;2023-05-22T11:34:25;101075.81;;;32.26;22.12
7264;BME280;3673;52.480;13.348;2023-05-22T11:36:57;101068.81;;;32.44;21.84
7264;BME280;3673;52.480;13.348;2023-05-22T11:39:31;101063.50;;;32.43;21.53
7264;BME280;3673;52.480;13.348;2023-05-22T11:41:58;101074.09;;;32.46;21.52
7264;BME280;3673;52.480;13.348;2023-05-22T11:44:27;101060.81;;;32.63;21.19
7264;BME280;3673;52.480;13.348;2023-05-22T11:46:53;101060.13;;;32.50;20.84
7264;BME280;3673;52.480;13.348;2023-05-22T11:49:22;101061.56;;;33.05;20.56
7264;BME280;3673;52.480;13.348;2023-05-22T11:51:51;101061.66;;;33.34;20.36
7264;BME280;3673;52.480;13.348;2023-05-22T11:54:19;101054.94;;;33.29;20.17
7264;BME280;3673;52.480;13.348;2023-05-22T11:56:47;101062.88;;;33.11;20.04
7264;BME280;3673;52.480;13.348;2023-05-22T11:59:14;101057.75;;;32.78;20.78
7264;BME280;3673;52.480;13.348;2023-05-22T12:01:41;101056.00;;;32.77;20.77
7264;BME280;3673;52.480;13.348;2023-05-22T12:04:07;101052.97;;;33.00;20.60
7264;BME280;3673;52.480;13.348;2023-05-22T12:06:34;101047.31;;;33.13;20.36
7264;BME280;3673;52.480;13.348;2023-05-22T12:09:02;101044.41;;;33.45;20.00
7264;BME280;3673;52.480;13.348;2023-05-22T12:11:35;101043.66;;;34.48;18.65
7264;BME280;3673;52.480;13.348;2023-05-22T12:14:03;101039.88;;;34.69;18.08
7264;BME280;3673;52.480;13.348;2023-05-22T12:16:34;101044.97;;;34.81;17.99
7264;BME280;3673;52.480;13.348;2023-05-22T12:19:04;101042.09;;;34.46;18.00
7264;BME280;3673;52.480;13.348;2023-05-22T12:21:32;101041.41;;;34.81;18.13
7264;BME280;3673;52.480;13.348;2023-05-22T12:24:03;101037.59;;;34.64;17.80
7264;BME280;3673;52.480;13.348;2023-05-22T12:26:32;101038.28;;;34.76;17.66
7264;BME280;3673;52.480;13.348;2023-05-22T12:28:59;101037.41;;;34.29;18.15
7264;BME280;3673;52.480;13.348;2023-05-22T12:31:27;101030.00;;;34.11;18.21
7264;BME280;3673;52.480;13.348;2023-05-22T12:33:54;101027.28;;;34.11;18.05
7264;BME280;3673;52.480;13.348;2023-05-22T12:36:29;101031.28;;;33.98;18.23
7264;BME280;3673;52.480;13.348;2023-05-22T12:38:56;101029.84;;;34.23;18.04
7264;BME280;3673;52.480;13.348;2023-05-22T12:41:23;101026.13;;;34.04;18.19
7264;BME280;3673;52.480;13.348;2023-05-22T12:43:52;101028.25;;;34.20;17.95
7264;BME280;3673;52.480;13.348;2023-05-22T12:46:19;101026.78;;;34.45;17.88
7264;BME280;3673;52.480;13.348;2023-05-22T12:48:46;101025.00;;;34.73;17.30
7264;BME280;3673;52.480;13.348;2023-05-22T12:51:15;101031.09;;;34.84;16.75
7264;BME280;3673;52.480;13.348;2023-05-22T12:53:42;101019.16;;;34.95;17.35
7264;BME280;3673;52.480;13.348;2023-05-22T12:56:09;101013.06;;;35.10;16.92
7264;BME280;3673;52.480;13.348;2023-05-22T12:58:36;101022.47;;;35.61;16.30
7264;BME280;3673;52.480;13.348;2023-05-22T13:01:06;101016.16;;;35.78;15.88
7264;BME280;3673;52.480;13.348;2023-05-22T13:03:33;101018.69;;;35.97;15.77
7264;BME280;3673;52.480;13.348;2023-05-22T13:06:00;101026.06;;;35.17;16.64
7264;BME280;3673;52.480;13.348;2023-05-22T13:08:27;101018.69;;;35.27;16.73